O John Clark Restricted Landing Area [CLOSED]

Jump to: basic info | weather | comments

Related pages: nearby airports | nearby navaids | notams | map

Basic information (top)

Codes: 7IL2
Location: lon 42.368401, lat -87.991699, elev 790 ft / 241 m msl
Status: closed

Weather (top)

Current conditions for Waukegan Regional Airport 6nm (12km) ENE (rec'd 2014/09/15 01:52Z):

KUGN 150152Z AUTO 00000KT 10SM CLR 12/08 A3016 RMK AO2 SLP215 T01170083

Airport forecast for Kenosha Regional Airport 14nm (26km) NNE (rec'd 2014/09/14 00:21Z):

TAF KENW 142320Z 1500/1524 22007KT P6SM BKN120 
     FM151000 25008KT P6SM BKN050 
     FM151400 VRB03KT P6SM -SHRA OVC035 
     FM151600 02005KT 6SM -SHRA OVC019 
     FM152000 35011KT P6SM VCSH OVC022 
     FM152200 34007KT P6SM OVC040

Latest comments (top)

No comments yet for O John Clark Restricted Landing Area

More... (top)

See also NOTAMs and nearby airports and navaids, or visit the O John Clark Restricted Landing Area page at the main OurAirports website..